sensor_id;sensor_type;location;lat;lon;timestamp;pressure;altitude;pressure_sealevel;temperature;humidity
6090;BME280;3073;42.660;23.316;2023-10-09T00:02:05;95002.53;;;23.94;50.65
6090;BME280;3073;42.660;23.316;2023-10-09T00:04:34;95017.88;;;24.30;49.51
6090;BME280;3073;42.660;23.316;2023-10-09T00:07:02;95012.78;;;24.51;48.99
6090;BME280;3073;42.660;23.316;2023-10-09T00:09:33;95007.91;;;24.06;50.12
6090;BME280;3073;42.660;23.316;2023-10-09T00:12:15;95015.78;;;24.87;48.15
6090;BME280;3073;42.660;23.316;2023-10-09T00:14:50;95019.72;;;24.04;49.78
6090;BME280;3073;42.660;23.316;2023-10-09T00:17:21;95021.38;;;23.66;50.99
6090;BME280;3073;42.660;23.316;2023-10-09T00:19:56;95024.78;;;23.83;50.82
6090;BME280;3073;42.660;23.316;2023-10-09T00:22:33;95014.63;;;23.99;50.51
6090;BME280;3073;42.660;23.316;2023-10-09T00:25:04;95012.50;;;23.84;50.64
6090;BME280;3073;42.660;23.316;2023-10-09T00:27:38;95017.84;;;23.79;50.76
6090;BME280;3073;42.660;23.316;2023-10-09T00:30:10;95009.41;;;23.47;51.47
6090;BME280;3073;42.660;23.316;2023-10-09T00:32:40;95016.16;;;23.66;50.93
6090;BME280;3073;42.660;23.316;2023-10-09T00:35:08;95012.16;;;23.59;51.13
6090;BME280;3073;42.660;23.316;2023-10-09T00:37:51;95012.22;;;24.20;49.85
6090;BME280;3073;42.660;23.316;2023-10-09T00:40:30;95018.31;;;24.58;48.53
6090;BME280;3073;42.660;23.316;2023-10-09T00:42:59;95011.84;;;23.52;50.57
6090;BME280;3073;42.660;23.316;2023-10-09T00:45:33;95009.25;;;23.52;50.88
6090;BME280;3073;42.660;23.316;2023-10-09T00:48:05;95010.53;;;23.98;49.89
6090;BME280;3073;42.660;23.316;2023-10-09T00:50:34;95008.44;;;23.35;50.67
6090;BME280;3073;42.660;23.316;2023-10-09T00:53:05;95026.63;;;23.91;50.14
6090;BME280;3073;42.660;23.316;2023-10-09T00:55:38;95030.72;;;23.75;49.81
6090;BME280;3073;42.660;23.316;2023-10-09T00:58:11;95024.50;;;23.37;51.03
6090;BME280;3073;42.660;23.316;2023-10-09T01:00:41;95040.22;;;23.54;50.77
6090;BME280;3073;42.660;23.316;2023-10-09T01:03:18;95034.47;;;23.35;51.44
6090;BME280;3073;42.660;23.316;2023-10-09T01:05:47;95046.09;;;23.94;49.67
6090;BME280;3073;42.660;23.316;2023-10-09T01:08:23;95044.03;;;23.08;51.40
6090;BME280;3073;42.660;23.316;2023-10-09T01:10:54;95051.28;;;23.77;50.08
6090;BME280;3073;42.660;23.316;2023-10-09T01:13:23;95062.31;;;23.74;49.78
6090;BME280;3073;42.660;23.316;2023-10-09T01:16:06;95062.88;;;22.75;51.66
6090;BME280;3073;42.660;23.316;2023-10-09T01:18:38;95066.47;;;23.27;50.61
6090;BME280;3073;42.660;23.316;2023-10-09T01:21:08;95056.34;;;23.25;50.45
6090;BME280;3073;42.660;23.316;2023-10-09T01:23:39;95069.78;;;22.35;51.72
6090;BME280;3073;42.660;23.316;2023-10-09T01:26:26;95069.66;;;23.24;49.71
6090;BME280;3073;42.660;23.316;2023-10-09T01:28:58;95081.84;;;21.81;52.49
6090;BME280;3073;42.660;23.316;2023-10-09T01:31:25;95079.56;;;23.04;49.90
6090;BME280;3073;42.660;23.316;2023-10-09T01:33:59;95076.44;;;22.27;51.50
6090;BME280;3073;42.660;23.316;2023-10-09T01:36:27;95075.03;;;22.88;49.98
6090;BME280;3073;42.660;23.316;2023-10-09T01:39:00;95072.59;;;22.47;50.88
6090;BME280;3073;42.660;23.316;2023-10-09T01:41:33;95080.75;;;22.32;51.14
6090;BME280;3073;42.660;23.316;2023-10-09T01:44:03;95076.97;;;22.60;50.68
6090;BME280;3073;42.660;23.316;2023-10-09T01:46:35;95082.88;;;22.30;50.97
6090;BME280;3073;42.660;23.316;2023-10-09T01:49:02;95103.69;;;22.30;51.28
6090;BME280;3073;42.660;23.316;2023-10-09T01:51:36;95105.81;;;21.51;52.59
6090;BME280;3073;42.660;23.316;2023-10-09T01:54:05;95104.56;;;21.89;51.44
6090;BME280;3073;42.660;23.316;2023-10-09T01:56:32;95105.50;;;21.80;51.78
6090;BME280;3073;42.660;23.316;2023-10-09T01:59:02;95104.44;;;21.13;54.21
6090;BME280;3073;42.660;23.316;2023-10-09T02:01:31;95108.81;;;21.31;54.05
6090;BME280;3073;42.660;23.316;2023-10-09T02:03:58;95116.47;;;21.22;54.33
6090;BME280;3073;42.660;23.316;2023-10-09T02:06:37;95124.59;;;21.48;53.86
6090;BME280;3073;42.660;23.316;2023-10-09T02:09:05;95117.84;;;21.47;54.01
6090;BME280;3073;42.660;23.316;2023-10-09T02:11:33;95124.94;;;21.55;53.28
6090;BME280;3073;42.660;23.316;2023-10-09T02:14:03;95119.84;;;20.90;55.00
6090;BME280;3073;42.660;23.316;2023-10-09T02:16:41;95131.78;;;21.05;55.05
6090;BME280;3073;42.660;23.316;2023-10-09T02:19:09;95135.47;;;22.27;52.33
6090;BME280;3073;42.660;23.316;2023-10-09T02:21:55;95144.69;;;22.33;51.56
6090;BME280;3073;42.660;23.316;2023-10-09T02:24:25;95162.28;;;22.00;51.72
6090;BME280;3073;42.660;23.316;2023-10-09T02:27:15;95153.03;;;21.39;52.90
6090;BME280;3073;42.660;23.316;2023-10-09T02:29:52;95158.72;;;21.09;53.31
6090;BME280;3073;42.660;23.316;2023-10-09T02:32:21;95156.75;;;20.13;55.86
6090;BME280;3073;42.660;23.316;2023-10-09T02:34:53;95160.91;;;21.21;53.60
6090;BME280;3073;42.660;23.316;2023-10-09T02:37:20;95166.38;;;21.19;53.47
6090;BME280;3073;42.660;23.316;2023-10-09T02:39:52;95168.34;;;21.68;52.15
6090;BME280;3073;42.660;23.316;2023-10-09T02:42:19;95158.00;;;20.90;53.23
6090;BME280;3073;42.660;23.316;2023-10-09T02:44:53;95153.91;;;21.35;52.50
6090;BME280;3073;42.660;23.316;2023-10-09T02:47:21;95151.28;;;22.17;50.49
6090;BME280;3073;42.660;23.316;2023-10-09T02:49:50;95146.31;;;21.66;51.03
6090;BME280;3073;42.660;23.316;2023-10-09T02:52:18;95153.63;;;21.64;51.36
6090;BME280;3073;42.660;23.316;2023-10-09T02:54:52;95165.28;;;21.93;50.50
6090;BME280;3073;42.660;23.316;2023-10-09T02:57:26;95171.59;;;21.33;51.16
6090;BME280;3073;42.660;23.316;2023-10-09T03:00:03;95174.50;;;21.72;50.41
6090;BME280;3073;42.660;23.316;2023-10-09T03:02:34;95188.53;;;20.61;52.77
6090;BME280;3073;42.660;23.316;2023-10-09T03:05:06;95172.56;;;21.04;51.15
6090;BME280;3073;42.660;23.316;2023-10-09T03:07:37;95180.19;;;20.64;52.70
6090;BME280;3073;42.660;23.316;2023-10-09T03:10:07;95181.25;;;20.95;51.36
6090;BME280;3073;42.660;23.316;2023-10-09T03:12:35;95189.16;;;19.91;53.30
6090;BME280;3073;42.660;23.316;2023-10-09T03:15:02;95184.09;;;20.24;53.07
6090;BME280;3073;42.660;23.316;2023-10-09T03:17:31;95181.78;;;19.98;53.40
6090;BME280;3073;42.660;23.316;2023-10-09T03:20:02;95178.13;;;19.57;54.93
6090;BME280;3073;42.660;23.316;2023-10-09T03:22:37;95173.41;;;20.68;52.13
6090;BME280;3073;42.660;23.316;2023-10-09T03:25:08;95175.66;;;20.13;53.17
6090;BME280;3073;42.660;23.316;2023-10-09T03:27:38;95203.03;;;20.00;53.17
6090;BME280;3073;42.660;23.316;2023-10-09T03:30:08;95201.56;;;20.55;51.95
6090;BME280;3073;42.660;23.316;2023-10-09T03:32:45;95210.69;;;20.53;52.33
6090;BME280;3073;42.660;23.316;2023-10-09T03:35:16;95209.47;;;20.27;52.60
6090;BME280;3073;42.660;23.316;2023-10-09T03:37:53;95215.09;;;19.86;52.59
6090;BME280;3073;42.660;23.316;2023-10-09T03:40:24;95209.78;;;20.44;52.11
6090;BME280;3073;42.660;23.316;2023-10-09T03:42:51;95211.03;;;19.23;54.73
6090;BME280;3073;42.660;23.316;2023-10-09T03:45:18;95207.56;;;20.32;52.30
6090;BME280;3073;42.660;23.316;2023-10-09T03:47:54;95209.00;;;20.81;50.54
6090;BME280;3073;42.660;23.316;2023-10-09T03:50:28;95214.06;;;20.11;51.74
6090;BME280;3073;42.660;23.316;2023-10-09T03:53:04;95212.84;;;20.22;51.88
6090;BME280;3073;42.660;23.316;2023-10-09T03:55:35;95224.31;;;19.74;52.82
6090;BME280;3073;42.660;23.316;2023-10-09T03:58:04;95229.00;;;19.43;52.69
6090;BME280;3073;42.660;23.316;2023-10-09T04:00:32;95235.88;;;19.81;52.67
6090;BME280;3073;42.660;23.316;2023-10-09T04:03:06;95235.34;;;20.08;52.08
6090;BME280;3073;42.660;23.316;2023-10-09T04:05:37;95232.78;;;19.79;52.79
6090;BME280;3073;42.660;23.316;2023-10-09T04:08:06;95237.97;;;19.79;52.38
6090;BME280;3073;42.660;23.316;2023-10-09T04:10:40;95230.16;;;19.84;51.99
6090;BME280;3073;42.660;23.316;2023-10-09T04:13:36;95228.03;;;20.10;50.90
6090;BME280;3073;42.660;23.316;2023-10-09T04:16:05;95225.59;;;20.19;50.22
6090;BME280;3073;42.660;23.316;2023-10-09T04:18:45;95221.94;;;19.77;51.34
6090;BME280;3073;42.660;23.316;2023-10-09T04:21:12;95229.63;;;19.25;51.47
6090;BME280;3073;42.660;23.316;2023-10-09T04:23:45;95226.00;;;19.83;50.36
6090;BME280;3073;42.660;23.316;2023-10-09T04:26:37;95222.75;;;20.81;48.48
6090;BME280;3073;42.660;23.316;2023-10-09T04:29:09;95233.56;;;20.27;48.95
6090;BME280;3073;42.660;23.316;2023-10-09T04:31:44;95243.50;;;20.81;48.29
6090;BME280;3073;42.660;23.316;2023-10-09T04:34:17;95241.38;;;20.22;48.86
6090;BME280;3073;42.660;23.316;2023-10-09T04:37:00;95241.84;;;20.29;48.32
6090;BME280;3073;42.660;23.316;2023-10-09T04:39:45;95235.00;;;20.57;47.52
6090;BME280;3073;42.660;23.316;2023-10-09T04:42:27;95241.59;;;20.87;46.91
6090;BME280;3073;42.660;23.316;2023-10-09T04:45:04;95232.31;;;20.62;47.28
6090;BME280;3073;42.660;23.316;2023-10-09T04:48:12;95230.16;;;20.08;48.02
6090;BME280;3073;42.660;23.316;2023-10-09T04:50:58;95226.66;;;20.18;47.86
6090;BME280;3073;42.660;23.316;2023-10-09T04:53:42;95234.69;;;19.97;47.48
6090;BME280;3073;42.660;23.316;2023-10-09T04:56:13;95230.03;;;19.42;48.21
6090;BME280;3073;42.660;23.316;2023-10-09T04:58:42;95231.41;;;19.63;47.51
6090;BME280;3073;42.660;23.316;2023-10-09T05:01:12;95250.88;;;19.56;47.25
6090;BME280;3073;42.660;23.316;2023-10-09T05:03:42;95243.78;;;19.03;47.15
6090;BME280;3073;42.660;23.316;2023-10-09T05:06:17;95259.03;;;18.66;47.62
6090;BME280;3073;42.660;23.316;2023-10-09T05:08:47;95255.78;;;18.40;48.17
6090;BME280;3073;42.660;23.316;2023-10-09T05:11:14;95246.69;;;19.31;46.75
6090;BME280;3073;42.660;23.316;2023-10-09T05:14:01;95249.75;;;19.67;45.22
6090;BME280;3073;42.660;23.316;2023-10-09T05:16:40;95242.13;;;18.25;47.09
6090;BME280;3073;42.660;23.316;2023-10-09T05:19:20;95258.72;;;19.12;46.23
6090;BME280;3073;42.660;23.316;2023-10-09T05:22:08;95268.22;;;18.82;45.57
6090;BME280;3073;42.660;23.316;2023-10-09T05:24:42;95269.75;;;19.61;44.72
6090;BME280;3073;42.660;23.316;2023-10-09T05:27:12;95273.22;;;19.75;44.85
6090;BME280;3073;42.660;23.316;2023-10-09T05:29:45;95276.00;;;19.21;45.10
6090;BME280;3073;42.660;23.316;2023-10-09T05:32:24;95280.19;;;19.51;44.08
6090;BME280;3073;42.660;23.316;2023-10-09T05:34:55;95289.56;;;19.42;44.44
6090;BME280;3073;42.660;23.316;2023-10-09T05:37:41;95284.88;;;20.25;43.38
6090;BME280;3073;42.660;23.316;2023-10-09T05:40:09;95298.63;;;19.39;44.05
6090;BME280;3073;42.660;23.316;2023-10-09T05:42:48;95296.31;;;20.48;42.64
6090;BME280;3073;42.660;23.316;2023-10-09T05:45:26;95300.31;;;19.59;43.52
6090;BME280;3073;42.660;23.316;2023-10-09T05:48:17;95302.22;;;20.30;42.72
6090;BME280;3073;42.660;23.316;2023-10-09T05:51:01;95304.28;;;19.80;42.56
6090;BME280;3073;42.660;23.316;2023-10-09T05:53:38;95309.81;;;20.45;41.96
6090;BME280;3073;42.660;23.316;2023-10-09T05:56:18;95305.13;;;20.89;41.50
6090;BME280;3073;42.660;23.316;2023-10-09T05:59:02;95324.63;;;22.21;39.67
6090;BME280;3073;42.660;23.316;2023-10-09T06:01:47;95324.81;;;21.46;40.10
6090;BME280;3073;42.660;23.316;2023-10-09T06:04:32;95330.00;;;20.90;40.24
6090;BME280;3073;42.660;23.316;2023-10-09T06:07:14;95335.06;;;21.56;39.71
6090;BME280;3073;42.660;23.316;2023-10-09T06:09:49;95339.50;;;20.58;41.06
6090;BME280;3073;42.660;23.316;2023-10-09T06:12:19;95338.81;;;21.13;40.20
6090;BME280;3073;42.660;23.316;2023-10-09T06:15:15;95347.34;;;20.29;40.63
6090;BME280;3073;42.660;23.316;2023-10-09T06:18:17;95351.44;;;21.20;39.38
6090;BME280;3073;42.660;23.316;2023-10-09T06:20:58;95355.06;;;21.19;39.61
6090;BME280;3073;42.660;23.316;2023-10-09T06:23:51;95354.25;;;21.74;38.22
6090;BME280;3073;42.660;23.316;2023-10-09T06:26:35;95358.19;;;19.73;40.95
6090;BME280;3073;42.660;23.316;2023-10-09T06:29:02;95357.31;;;21.25;38.96
6090;BME280;3073;42.660;23.316;2023-10-09T06:31:40;95357.50;;;21.98;38.12
6090;BME280;3073;42.660;23.316;2023-10-09T06:34:32;95363.25;;;22.82;37.21
6090;BME280;3073;42.660;23.316;2023-10-09T06:36:59;95360.38;;;23.20;36.32
6090;BME280;3073;42.660;23.316;2023-10-09T06:39:31;95365.97;;;22.77;37.02
6090;BME280;3073;42.660;23.316;2023-10-09T06:42:15;95361.59;;;22.32;37.06
6090;BME280;3073;42.660;23.316;2023-10-09T06:45:15;95358.91;;;22.64;36.88
6090;BME280;3073;42.660;23.316;2023-10-09T06:47:41;95364.56;;;24.09;35.39
6090;BME280;3073;42.660;23.316;2023-10-09T06:50:08;95354.00;;;23.84;35.90
6090;BME280;3073;42.660;23.316;2023-10-09T06:52:52;95358.50;;;23.70;34.82
6090;BME280;3073;42.660;23.316;2023-10-09T06:55:44;95358.53;;;22.30;36.64
6090;BME280;3073;42.660;23.316;2023-10-09T06:58:17;95360.63;;;24.51;34.55
6090;BME280;3073;42.660;23.316;2023-10-09T07:00:53;95361.97;;;23.65;34.56
6090;BME280;3073;42.660;23.316;2023-10-09T07:03:37;95357.44;;;25.54;32.89
6090;BME280;3073;42.660;23.316;2023-10-09T07:06:18;95359.91;;;24.77;33.34
6090;BME280;3073;42.660;23.316;2023-10-09T07:08:50;95355.44;;;25.68;32.36
6090;BME280;3073;42.660;23.316;2023-10-09T07:11:39;95360.94;;;25.15;32.23
6090;BME280;3073;42.660;23.316;2023-10-09T07:14:32;95354.47;;;23.41;33.63
6090;BME280;3073;42.660;23.316;2023-10-09T07:17:14;95350.56;;;23.39;33.51
6090;BME280;3073;42.660;23.316;2023-10-09T07:19:49;95360.69;;;23.18;33.51
6090;BME280;3073;42.660;23.316;2023-10-09T07:22:35;95366.13;;;23.66;32.65
6090;BME280;3073;42.660;23.316;2023-10-09T07:25:19;95366.59;;;24.91;31.48
6090;BME280;3073;42.660;23.316;2023-10-09T07:28:06;95380.47;;;23.77;32.49
6090;BME280;3073;42.660;23.316;2023-10-09T07:30:55;95365.81;;;24.12;32.04
6090;BME280;3073;42.660;23.316;2023-10-09T07:33:24;95373.09;;;24.63;31.55
6090;BME280;3073;42.660;23.316;2023-10-09T07:36:17;95373.19;;;22.80;33.00
6090;BME280;3073;42.660;23.316;2023-10-09T07:38:56;95374.56;;;23.63;31.77
6090;BME280;3073;42.660;23.316;2023-10-09T07:41:30;95380.59;;;23.94;31.75
6090;BME280;3073;42.660;23.316;2023-10-09T07:44:06;95364.41;;;24.37;31.77
6090;BME280;3073;42.660;23.316;2023-10-09T07:46:46;95365.91;;;23.98;31.82
6090;BME280;3073;42.660;23.316;2023-10-09T07:49:40;95378.78;;;24.65;30.97
6090;BME280;3073;42.660;23.316;2023-10-09T07:52:06;95380.09;;;26.69;29.17
6090;BME280;3073;42.660;23.316;2023-10-09T07:54:33;95373.03;;;26.05;29.34
6090;BME280;3073;42.660;23.316;2023-10-09T07:57:01;95376.34;;;24.29;30.12
6090;BME280;3073;42.660;23.316;2023-10-09T07:59:41;95375.69;;;22.58;32.38
6090;BME280;3073;42.660;23.316;2023-10-09T08:02:20;95377.25;;;24.64;30.73
6090;BME280;3073;42.660;23.316;2023-10-09T08:05:01;95382.09;;;23.95;31.39
6090;BME280;3073;42.660;23.316;2023-10-09T08:07:46;95382.28;;;26.11;29.69
6090;BME280;3073;42.660;23.316;2023-10-09T08:10:23;95379.28;;;23.61;30.75
6090;BME280;3073;42.660;23.316;2023-10-09T08:13:18;95374.31;;;25.14;30.09
6090;BME280;3073;42.660;23.316;2023-10-09T08:16:02;95367.09;;;26.43;29.26
6090;BME280;3073;42.660;23.316;2023-10-09T08:18:30;95373.78;;;27.20;27.83
6090;BME280;3073;42.660;23.316;2023-10-09T08:20:58;95375.63;;;27.48;27.09
6090;BME280;3073;42.660;23.316;2023-10-09T08:24:06;95373.78;;;27.20;27.63
6090;BME280;3073;42.660;23.316;2023-10-09T08:26:53;95373.25;;;26.85;27.12
6090;BME280;3073;42.660;23.316;2023-10-09T08:29:40;95366.16;;;25.49;28.72
6090;BME280;3073;42.660;23.316;2023-10-09T08:32:12;95362.69;;;26.64;27.57
6090;BME280;3073;42.660;23.316;2023-10-09T08:35:04;95362.41;;;26.19;28.31
6090;BME280;3073;42.660;23.316;2023-10-09T08:37:45;95355.03;;;26.21;28.65
6090;BME280;3073;42.660;23.316;2023-10-09T08:40:14;95341.19;;;26.50;28.21
6090;BME280;3073;42.660;23.316;2023-10-09T08:42:48;95341.41;;;26.36;28.42
6090;BME280;3073;42.660;23.316;2023-10-09T08:45:21;95341.25;;;26.71;28.10
6090;BME280;3073;42.660;23.316;2023-10-09T08:47:53;95328.91;;;28.07;27.34
6090;BME280;3073;42.660;23.316;2023-10-09T08:50:20;95333.78;;;27.31;27.49
6090;BME280;3073;42.660;23.316;2023-10-09T08:52:49;95327.72;;;28.90;26.08
6090;BME280;3073;42.660;23.316;2023-10-09T08:55:16;95325.69;;;27.16;25.85
6090;BME280;3073;42.660;23.316;2023-10-09T08:57:44;95341.25;;;26.71;26.14
6090;BME280;3073;42.660;23.316;2023-10-09T09:00:16;95331.03;;;27.81;25.68
6090;BME280;3073;42.660;23.316;2023-10-09T09:02:47;95328.91;;;28.07;25.33
6090;BME280;3073;42.660;23.316;2023-10-09T09:05:18;95315.47;;;28.57;24.94
6090;BME280;3073;42.660;23.316;2023-10-09T09:07:49;95316.19;;;29.46;24.00
6090;BME280;3073;42.660;23.316;2023-10-09T09:10:15;95319.31;;;28.11;24.77
6090;BME280;3073;42.660;23.316;2023-10-09T09:12:47;95324.63;;;29.00;24.39
6090;BME280;3073;42.660;23.316;2023-10-09T09:15:19;95333.38;;;30.78;22.95
6090;BME280;3073;42.660;23.316;2023-10-09T09:17:47;95335.03;;;27.67;25.44
6090;BME280;3073;42.660;23.316;2023-10-09T09:20:20;95330.25;;;28.13;25.67
6090;BME280;3073;42.660;23.316;2023-10-09T09:22:55;95324.13;;;27.44;25.93
6090;BME280;3073;42.660;23.316;2023-10-09T09:25:23;95313.50;;;28.91;24.83
6090;BME280;3073;42.660;23.316;2023-10-09T09:28:04;95314.63;;;29.30;24.33
6090;BME280;3073;42.660;23.316;2023-10-09T09:30:38;95304.38;;;29.00;24.71
6090;BME280;3073;42.660;23.316;2023-10-09T09:33:19;95311.06;;;30.25;24.13
6090;BME280;3073;42.660;23.316;2023-10-09T09:35:56;95304.78;;;30.13;23.59
6090;BME280;3073;42.660;23.316;2023-10-09T09:38:28;95295.63;;;29.64;23.57
6090;BME280;3073;42.660;23.316;2023-10-09T09:41:07;95290.59;;;31.19;22.84
6090;BME280;3073;42.660;23.316;2023-10-09T09:43:36;95300.66;;;32.17;22.33
6090;BME280;3073;42.660;23.316;2023-10-09T09:46:06;95298.75;;;32.40;22.14
6090;BME280;3073;42.660;23.316;2023-10-09T09:48:35;95302.84;;;31.69;22.47
6090;BME280;3073;42.660;23.316;2023-10-09T09:51:04;95297.94;;;32.88;21.10
6090;BME280;3073;42.660;23.316;2023-10-09T09:53:35;95301.19;;;31.61;21.72
6090;BME280;3073;42.660;23.316;2023-10-09T09:56:01;95287.97;;;32.26;21.34
6090;BME280;3073;42.660;23.316;2023-10-09T09:58:30;95283.25;;;30.93;22.07
6090;BME280;3073;42.660;23.316;2023-10-09T10:01:08;95285.31;;;30.84;22.32
6090;BME280;3073;42.660;23.316;2023-10-09T10:03:44;95264.44;;;29.94;23.13
6090;BME280;3073;42.660;23.316;2023-10-09T10:06:13;95266.72;;;27.63;25.29
6090;BME280;3073;42.660;23.316;2023-10-09T10:08:47;95264.41;;;28.06;24.29
6090;BME280;3073;42.660;23.316;2023-10-09T10:14:06;95252.06;;;31.14;22.13
6090;BME280;3073;42.660;23.316;2023-10-09T10:16:59;95246.97;;;33.21;20.86
6090;BME280;3073;42.660;23.316;2023-10-09T10:20:04;95248.84;;;32.61;20.79
6090;BME280;3073;42.660;23.316;2023-10-09T10:22:46;95246.22;;;33.21;20.42
6090;BME280;3073;42.660;23.316;2023-10-09T10:25:35;95230.97;;;33.10;20.43
6090;BME280;3073;42.660;23.316;2023-10-09T10:28:17;95233.19;;;33.79;19.69
6090;BME280;3073;42.660;23.316;2023-10-09T10:30:54;95228.88;;;34.62;18.99
6090;BME280;3073;42.660;23.316;2023-10-09T10:33:21;95222.50;;;34.12;19.43
6090;BME280;3073;42.660;23.316;2023-10-09T10:35:50;95205.63;;;35.28;18.98
6090;BME280;3073;42.660;23.316;2023-10-09T10:38:28;95207.59;;;36.30;18.28
6090;BME280;3073;42.660;23.316;2023-10-09T10:41:15;95208.97;;;36.80;18.09
6090;BME280;3073;42.660;23.316;2023-10-09T10:43:48;95191.28;;;36.13;18.16
6090;BME280;3073;42.660;23.316;2023-10-09T10:46:22;95196.59;;;36.21;18.08
6090;BME280;3073;42.660;23.316;2023-10-09T10:49:04;95187.78;;;31.45;21.49
6090;BME280;3073;42.660;23.316;2023-10-09T10:51:41;95174.13;;;32.64;20.93
6090;BME280;3073;42.660;23.316;2023-10-09T10:54:21;95179.81;;;32.40;20.87
6090;BME280;3073;42.660;23.316;2023-10-09T10:57:15;95175.53;;;33.61;20.42
6090;BME280;3073;42.660;23.316;2023-10-09T10:59:54;95185.63;;;35.69;18.97
6090;BME280;3073;42.660;23.316;2023-10-09T11:02:39;95178.75;;;36.14;18.25
6090;BME280;3073;42.660;23.316;2023-10-09T11:05:07;95177.16;;;36.48;18.70
6090;BME280;3073;42.660;23.316;2023-10-09T11:07:50;95173.47;;;34.50;19.26
6090;BME280;3073;42.660;23.316;2023-10-09T11:10:22;95164.16;;;33.17;20.45
6090;BME280;3073;42.660;23.316;2023-10-09T11:12:55;95169.25;;;34.35;20.33
6090;BME280;3073;42.660;23.316;2023-10-09T11:15:37;95155.75;;;33.96;20.22
6090;BME280;3073;42.660;23.316;2023-10-09T11:18:22;95138.16;;;34.28;19.99
6090;BME280;3073;42.660;23.316;2023-10-09T11:20:52;95134.53;;;33.92;20.01
6090;BME280;3073;42.660;23.316;2023-10-09T11:23:48;95124.09;;;35.14;19.33
6090;BME280;3073;42.660;23.316;2023-10-09T11:26:24;95117.16;;;34.74;19.10
6090;BME280;3073;42.660;23.316;2023-10-09T11:29:08;95111.84;;;34.74;18.80
6090;BME280;3073;42.660;23.316;2023-10-09T11:31:57;95115.38;;;36.09;18.59
6090;BME280;3073;42.660;23.316;2023-10-09T11:34:25;95116.28;;;33.29;20.55
6090;BME280;3073;42.660;23.316;2023-10-09T11:36:59;95117.66;;;35.19;18.71
6090;BME280;3073;42.660;23.316;2023-10-09T11:39:29;95130.56;;;35.87;18.91
6090;BME280;3073;42.660;23.316;2023-10-09T11:42:04;95113.06;;;36.22;18.23
6090;BME280;3073;42.660;23.316;2023-10-09T11:44:39;95109.34;;;36.88;18.03
6090;BME280;3073;42.660;23.316;2023-10-09T11:47:07;95108.69;;;37.36;17.57
6090;BME280;3073;42.660;23.316;2023-10-09T11:49:58;95101.88;;;36.69;18.11
6090;BME280;3073;42.660;23.316;2023-10-09T11:52:56;95099.44;;;35.21;18.88
6090;BME280;3073;42.660;23.316;2023-10-09T11:55:35;95096.03;;;35.73;18.55
6090;BME280;3073;42.660;23.316;2023-10-09T11:58:03;95092.94;;;34.83;18.25
6090;BME280;3073;42.660;23.316;2023-10-09T12:00:33;95074.38;;;34.90;19.04
6090;BME280;3073;42.660;23.316;2023-10-09T12:03:12;95077.84;;;35.19;19.05
6090;BME280;3073;42.660;23.316;2023-10-09T12:05:40;95069.78;;;36.00;18.25
6090;BME280;3073;42.660;23.316;2023-10-09T12:08:11;95066.47;;;35.29;18.44
6090;BME280;3073;42.660;23.316;2023-10-09T12:10:41;95051.81;;;36.43;17.99
6090;BME280;3073;42.660;23.316;2023-10-09T12:13:08;95055.00;;;36.09;17.84
6090;BME280;3073;42.660;23.316;2023-10-09T12:15:36;95049.75;;;36.75;17.74
6090;BME280;3073;42.660;23.316;2023-10-09T12:18:06;95044.81;;;36.74;17.49
6090;BME280;3073;42.660;23.316;2023-10-09T12:20:41;95053.53;;;35.70;18.47
6090;BME280;3073;42.660;23.316;2023-10-09T12:23:07;95049.97;;;37.02;17.66
6090;BME280;3073;42.660;23.316;2023-10-09T12:25:40;95044.84;;;35.66;18.23
6090;BME280;3073;42.660;23.316;2023-10-09T12:28:10;95048.38;;;36.49;16.73
6090;BME280;3073;42.660;23.316;2023-10-09T12:30:40;95042.94;;;32.89;18.19
6090;BME280;3073;42.660;23.316;2023-10-09T12:33:08;95039.31;;;33.55;17.55
6090;BME280;3073;42.660;23.316;2023-10-09T12:35:39;95031.19;;;35.32;17.29
6090;BME280;3073;42.660;23.316;2023-10-09T12:38:07;95031.00;;;34.19;17.28
6090;BME280;3073;42.660;23.316;2023-10-09T12:40:35;95015.56;;;33.11;17.26
6090;BME280;3073;42.660;23.316;2023-10-09T12:43:03;95019.47;;;35.11;16.81
6090;BME280;3073;42.660;23.316;2023-10-09T12:45:33;95019.41;;;33.18;17.16
6090;BME280;3073;42.660;23.316;2023-10-09T12:48:02;95011.84;;;34.78;16.32
6090;BME280;3073;42.660;23.316;2023-10-09T12:50:35;95022.47;;;34.89;16.19
6090;BME280;3073;42.660;23.316;2023-10-09T12:53:07;95011.75;;;34.50;17.11
6090;BME280;3073;42.660;23.316;2023-10-09T12:55:35;95004.16;;;34.38;16.52
6090;BME280;3073;42.660;23.316;2023-10-09T12:58:06;94997.13;;;33.87;16.80
6090;BME280;3073;42.660;23.316;2023-10-09T13:00:34;94994.72;;;33.06;16.98
6090;BME280;3073;42.660;23.316;2023-10-09T13:03:05;94991.53;;;31.27;17.80
6090;BME280;3073;42.660;23.316;2023-10-09T13:05:48;94986.94;;;30.98;18.18
6090;BME280;3073;42.660;23.316;2023-10-09T13:08:22;94991.50;;;33.27;17.95
6090;BME280;3073;42.660;23.316;2023-10-09T13:10:56;94984.34;;;34.03;16.95
6090;BME280;3073;42.660;23.316;2023-10-09T13:13:30;94969.75;;;33.04;16.89
6090;BME280;3073;42.660;23.316;2023-10-09T13:16:08;94973.56;;;35.07;15.83
6090;BME280;3073;42.660;23.316;2023-10-09T13:18:40;94963.47;;;36.10;15.81
6090;BME280;3073;42.660;23.316;2023-10-09T13:21:07;94963.28;;;34.60;16.14
6090;BME280;3073;42.660;23.316;2023-10-09T13:23:34;94956.41;;;34.27;15.94
6090;BME280;3073;42.660;23.316;2023-10-09T13:26:07;94967.06;;;34.45;16.44
6090;BME280;3073;42.660;23.316;2023-10-09T13:28:48;94958.59;;;32.03;17.12
6090;BME280;3073;42.660;23.316;2023-10-09T13:31:15;94948.41;;;31.69;17.58
6090;BME280;3073;42.660;23.316;2023-10-09T13:33:45;94946.03;;;32.63;17.01
6090;BME280;3073;42.660;23.316;2023-10-09T13:36:13;94943.75;;;33.09;16.78
6090;BME280;3073;42.660;23.316;2023-10-09T13:38:52;94954.97;;;34.86;16.44
6090;BME280;3073;42.660;23.316;2023-10-09T13:41:20;94946.66;;;34.74;16.56
6090;BME280;3073;42.660;23.316;2023-10-09T13:43:47;94950.47;;;34.73;16.82
6090;BME280;3073;42.660;23.316;2023-10-09T13:46:17;94943.78;;;35.90;16.45
6090;BME280;3073;42.660;23.316;2023-10-09T13:48:45;94947.41;;;34.81;16.44
6090;BME280;3073;42.660;23.316;2023-10-09T13:51:15;94934.88;;;35.28;15.93
6090;BME280;3073;42.660;23.316;2023-10-09T13:53:43;94937.94;;;34.80;16.52
6090;BME280;3073;42.660;23.316;2023-10-09T13:56:14;94933.00;;;35.18;16.61